Wheatland, North Dakota
Current Conditions -  °F | °C
As of 12:53 AM on Friday 31 Oct 2014 (Local Time) from KFAR Reporting Station
Clear Clear  
Wind Chill: 12°   Ceiling: Unl
Heat Index: 23°   Visibility: 10mi
Dew Point: 18°   Wind: 12mph
Humidity: 81%   Direction: 330°NNW
Pressure: 30.57"   Gusts: NA
Location:  46.91°N, 97.34°W
Report Text: KFAR 310553Z 33010KT 10SM CLR M05/M08 A3057 RMK AO2 SLP367 T10501078 10006 21056 400561056 51018
Loading
Personal Weather Stations






























Interactive Weather Map New forecast layout! Learn more

10-Day Weather Forecast

Advertisements
Track Severe Weather on mobile